Terminal Aerodrome Forecast
Issued by NWS Paducah, KY

Home | Current Version | Previous Version | Text Only | Print | Product List | Glossary Off
Versions: 1 2 3 4 5 6 7 8 9 10 11 12 13 14 15 16 17 18 19 20 21 22 23 24 25 26 27

000
FTUS43 KPAH 180520
TAFEVV
TAF
KEVV 180520Z 1806/1906 13002KT P6SM FEW040
     FM180700 00000KT 4SM BR FEW040
      TEMPO 1809/1813 2SM BR BKN015
     FM181400 09005KT P6SM SCT250
     FM190100 08006KT P6SM BKN130=

USA.gov is the U.S. government's official web portal to all federal, state and local government web resources and services.